Flight Track Log - Related Links

Times and Time Zones

All times are in EDT time to prevent confusion due to time zone crossing. See the SKW4497 flight status page for this flight to view local times or setup timezone preferences in your user account.

Time Position Orientation Groundspeed Altitude Reporting Facility
EDT Latitude Longitude Course Direction KTS MPH feet Rate Location/Type
Sun 03:49:21 PM 29.9839 -95.3578 334° Northwest 162 186 700  Level Houston Center
Sun 03:50:23 PM 30.0353 -95.3903 331° Northwest 220 253 3,200 2,293 Climbing Houston Center
Sun 03:51:24 PM 30.0983 -95.4139 342° North 245 282 5,400 2,143 Climbing Houston Center
Sun 03:52:00 PM 30.3779 -95.5655 334° Northwest  Level FlightAware Approximate
Sun 03:52:15 PM 30.1458 -95.4300 344° North 238 274 7,200  Level Houston Center
Sun 03:53:00 PM 30.4777 -95.6209 334° Northwest  Level FlightAware Approximate
Sun 03:53:17 PM 30.2144 -95.4539 343° North 253 291 10,000  Level Houston Center
Sun 03:54:00 PM 30.5782 -95.6749 334° Northwest  Level FlightAware Approximate
Sun 03:54:19 PM 30.2794 -95.4925 333° Northwest 259 298 12,500  Level Houston Center
Sun 03:55:21 PM 30.3628 -95.5458 331° Northwest 279 321 14,500 1,935 Climbing Houston Center
Sun 03:56:23 PM 30.4414 -95.5928 333° Northwest 309 356 16,500 1,839 Climbing Houston Center
Sun 03:57:25 PM 30.5228 -95.6403 333° Northwest 323 372 18,300 1,839 Climbing Houston Center
Sun 03:58:27 PM 30.6064 -95.6875 334° Northwest 333 383 20,300 1,742 Climbing Houston Center
Sun 03:59:29 PM 30.6939 -95.7364 334° Northwest 337 388 21,900 1,597 Climbing Houston Center
Sun 04:00:31 PM 30.7853 -95.7847 336° Northwest 356 410 23,600 1,742 Climbing Houston Center
Sun 04:01:33 PM 30.8936 -95.8431 335° Northwest 357 411 25,500 1,488 Climbing Houston Center
Sun 04:02:36 PM 30.9858 -95.8928 335° Northwest 364 419 26,700 1,104 Climbing Houston Center
Sun 04:03:38 PM 31.0808 -95.9431 336° Northwest 372 428 27,800 1,016 Climbing Houston Center
Sun 04:04:40 PM 31.1806 -95.9892 338° Northwest 382 440 28,800 968 Climbing Houston Center
Sun 04:05:42 PM 31.2869 -96.0289 342° North 394 453 29,800 1,016 Climbing Houston Center
Sun 04:06:44 PM 31.3911 -96.0697 341° North 395 455 30,900 1,017 Climbing Houston Center
Sun 04:07:40 PM 31.4925 -96.1075 342° North 391 450 31,800 983 Climbing Fort Worth Center
Sun 04:08:40 PM 31.5994 -96.1475 342° North 396 456 32,800 1,000 Climbing Fort Worth Center
Sun 04:09:40 PM 31.7022 -96.1900 341° North 396 456 33,800 600 Climbing Fort Worth Center
Sun 04:10:40 PM 31.8111 -96.2325 342° North 401 461 34,000 100 Climbing Fort Worth Center
Sun 04:11:40 PM 31.9222 -96.2753 342° North 414 476 34,000  Level Fort Worth Center
Sun 04:12:40 PM 32.0292 -96.3181 341° North 408 470 34,000  Level Fort Worth Center
Sun 04:13:40 PM 32.1339 -96.3608 341° North 403 464 34,000  Level Fort Worth Center
Sun 04:14:40 PM 32.2197 -96.4089 335° Northwest 392 451 34,000  Level Fort Worth Center
Sun 04:15:40 PM 32.3103 -96.5161 315° West 385 443 34,000  Level Fort Worth Center
Sun 04:16:40 PM 32.3756 -96.5942 315° West 377 434 34,000  Level Fort Worth Center
Sun 04:18:00 PM 32.4828 -96.7143 317° Northwest  Level FlightAware Approximate
Sun 04:18:40 PM 32.5269 -96.7678 317° Northwest 377 434 34,000  Level Fort Worth Center
Sun 04:19:40 PM 32.6108 -96.8633 316° Northwest 383 441 34,000  Level Fort Worth Center
Sun 04:20:40 PM 32.6864 -96.9469 317° Northwest 376 433 34,000  Level Fort Worth Center
Sun 04:21:40 PM 32.7597 -97.0306 316° Northwest 371 427 34,000  Level Fort Worth Center
Sun 04:22:40 PM 32.8350 -97.1167 316° Northwest 371 427 34,000  Level Fort Worth Center
Sun 04:23:40 PM 32.9083 -97.2006 316° Northwest 371 427 34,000  Level Fort Worth Center
Sun 04:24:40 PM 32.9814 -97.2919 314° West 381 438 34,000  Level Fort Worth Center
Sun 04:25:40 PM 33.0506 -97.3811 313° West 376 433 34,000  Level Fort Worth Center
Sun 04:26:40 PM 33.1214 -97.4731 313° West 371 427 34,000  Level Fort Worth Center
Sun 04:28:40 PM 33.2631 -97.6519 313° West 371 427 34,000  Level Fort Worth Center
Sun 04:30:00 PM 33.3585 -97.7739 313° West  Level FlightAware Approximate
Sun 04:30:40 PM 33.4025 -97.8314 313° West 371 427 34,000  Level Fort Worth Center
Sun 04:31:40 PM 33.4731 -97.9264 312° West 371 427 34,000  Level Fort Worth Center
Sun 04:32:40 PM 33.5417 -98.0142 313° West 371 427 34,000  Level Fort Worth Center
Sun 04:33:40 PM 33.6017 -98.1117 306° West 371 427 34,000  Level Fort Worth Center
Sun 04:34:40 PM 33.6533 -98.2069 303° West 376 433 34,000  Level Fort Worth Center
Sun 04:35:40 PM 33.7089 -98.3125 302° West 376 433 34,000  Level Fort Worth Center
Sun 04:36:40 PM 33.7706 -98.4281 303° West 376 433 34,000  Level Fort Worth Center
Sun 04:37:40 PM 33.8281 -98.5361 303° West 376 433 34,000  Level Fort Worth Center
Sun 04:38:40 PM 33.8833 -98.6444 302° West 383 441 34,000  Level Fort Worth Center
Sun 04:39:40 PM 33.9428 -98.7506 304° West 388 447 34,000  Level Fort Worth Center
Sun 04:40:40 PM 33.9961 -98.8414 305° West 388 447 34,000  Level Fort Worth Center
Sun 04:41:40 PM 34.0533 -98.9503 302° West 383 441 34,000  Level Fort Worth Center
Sun 04:42:40 PM 34.1164 -99.0767 301° West 394 453 34,000  Level Fort Worth Center
Sun 04:43:40 PM 34.1694 -99.1656 306° West 393 452 34,000  Level Fort Worth Center
Sun 04:44:40 PM 34.2261 -99.2772 302° West 386 444 34,000  Level Fort Worth Center
Sun 04:45:40 PM 34.2831 -99.3867 302° West 391 450 34,000  Level Fort Worth Center
Sun 04:48:04 PM 34.4175 -99.6503 302° West 376 433 34,000  Level Albuquerque Center
Sun 04:49:06 PM 34.4742 -99.7569 303° West 377 434 34,000  Level Albuquerque Center
Sun 04:50:08 PM 34.5281 -99.8633 302° West 373 429 34,000  Level Albuquerque Center
Sun 04:51:10 PM 34.5836 -99.9697 302° West 373 429 34,000  Level Albuquerque Center
Sun 04:52:12 PM 34.6378 -100.0756 302° West 371 427 34,000  Level Albuquerque Center
Sun 04:53:14 PM 34.7042 -100.2028 302° West 371 427 34,000  Level Albuquerque Center
Sun 04:54:16 PM 34.7578 -100.3094 301° West 371 427 34,000  Level Albuquerque Center
Sun 04:55:18 PM 34.8122 -100.4161 302° West 372 428 34,000  Level Albuquerque Center
Sun 04:56:20 PM 34.8672 -100.5225 302° West 372 428 34,000  Level Albuquerque Center
Sun 04:57:22 PM 34.9211 -100.6303 301° West 374 430 34,000  Level Albuquerque Center
Sun 04:58:23 PM 34.9758 -100.7394 301° West 378 435 34,000  Level Albuquerque Center
Sun 04:59:25 PM 35.0436 -100.8722 302° West 383 441 34,000  Level Albuquerque Center
Sun 05:00:27 PM 35.0992 -100.9836 301° West 386 444 34,000  Level Albuquerque Center
Sun 05:01:30 PM 35.1550 -101.0964 301° West 387 445 34,000  Level Albuquerque Center
Sun 05:02:31 PM 35.2108 -101.2089 301° West 389 448 34,000  Level Albuquerque Center
Sun 05:03:33 PM 35.2728 -101.3314 302° West 393 452 34,000  Level Albuquerque Center
Sun 05:04:35 PM 35.3308 -101.4478 301° West 396 456 34,000  Level Albuquerque Center
Sun 05:05:37 PM 35.3881 -101.5628 301° West 395 455 34,000  Level Albuquerque Center
Sun 05:06:39 PM 35.4447 -101.6775 301° West 393 452 34,000  Level Albuquerque Center
Sun 05:08:00 PM 35.5166 -101.8283 300° West  Level FlightAware Approximate
Sun 05:08:43 PM 35.5542 -101.9078 300° West 388 447 34,000  Level Albuquerque Center
Sun 05:09:45 PM 35.6197 -102.0431 301° West 388 447 34,000  Level Albuquerque Center
Sun 05:10:47 PM 35.6744 -102.1561 301° West 386 444 34,000  Level Albuquerque Center
Sun 05:11:49 PM 35.7283 -102.2689 301° West 384 442 34,000  Level Albuquerque Center
Sun 05:12:51 PM 35.7833 -102.3819 301° West 385 443 34,000  Level Albuquerque Center
Sun 05:13:53 PM 35.8372 -102.4947 301° West 384 442 34,000  Level Albuquerque Center
Sun 05:14:54 PM 35.8906 -102.6075 300° West 383 441 34,000  Level Albuquerque Center
Sun 05:15:56 PM 35.9553 -102.7417 301° West 381 438 34,000  Level Albuquerque Center
Sun 05:16:58 PM 36.0083 -102.8539 300° West 379 436 34,000  Level Albuquerque Center
Sun 05:18:00 PM 36.0636 -102.9708 300° West 384 442 34,000  Level Albuquerque Center
Sun 05:19:02 PM 36.1175 -103.0864 300° West 385 443 34,000  Level Albuquerque Center
Sun 05:20:04 PM 36.1722 -103.2014 301° West 387 445 34,000  Level Albuquerque Center
Sun 05:21:06 PM 36.2289 -103.3214 300° West 396 456 34,000  Level Albuquerque Center
Sun 05:22:08 PM 36.2925 -103.4600 300° West 395 455 34,000  Level Albuquerque Center
Sun 05:23:10 PM 36.3481 -103.5797 300° West 397 457 34,000  Level Albuquerque Center
Sun 05:24:12 PM 36.4036 -103.7008 300° West 400 460 34,000  Level Albuquerque Center
Sun 05:25:14 PM 36.4592 -103.8200 300° West 399 459 34,000  Level Albuquerque Center
Sun 05:26:16 PM 36.5158 -103.9411 300° West 401 461 34,000  Level Albuquerque Center
Sun 05:27:18 PM 36.5711 -104.0650 299° West 404 465 34,000  Level Albuquerque Center
Sun 05:28:20 PM 36.6275 -104.1872 300° West 405 466 34,000  Level Albuquerque Center
Sun 05:29:22 PM 36.6914 -104.3250 300° West 406 467 34,000  Level Albuquerque Center
Sun 05:30:24 PM 36.7433 -104.4428 299° West 404 465 34,000  Level Albuquerque Center
Sun 05:31:26 PM 36.8053 -104.5767 300° West 400 460 34,000  Level Albuquerque Center
Sun 05:32:27 PM 36.8564 -104.6925 299° West 397 457 34,000  Level Albuquerque Center
Sun 05:33:19 PM 36.8986 -104.7869 299° West 394 453 34,000  Level Denver Center
Sun 05:34:21 PM 36.9531 -104.9103 299° West 391 450 34,000  Level Denver Center
Sun 05:35:23 PM 37.0069 -105.0331 299° West 388 447 34,000  Level Denver Center
Sun 05:36:24 PM 37.0664 -105.1658 299° West 389 448 34,000  Level Denver Center
Sun 05:37:26 PM 37.1161 -105.2792 299° West 387 445 34,000  Level Denver Center
Sun 05:38:28 PM 37.1744 -105.4114 299° West 388 447 34,000  Level Denver Center
Sun 05:39:30 PM 37.2242 -105.5256 299° West 388 447 34,000  Level Denver Center
Sun 05:40:32 PM 37.2756 -105.6411 299° West 392 451 34,000  Level Denver Center
Sun 05:41:34 PM 37.3328 -105.7744 298° West 391 450 34,000  Level Denver Center
Sun 05:42:36 PM 37.3894 -105.8842 303° West 391 450 34,000  Level Denver Center
Sun 05:43:37 PM 37.4678 -106.0111 308° West 403 464 34,000  Level Denver Center
Sun 05:44:39 PM 37.5308 -106.1175 307° West 398 458 34,000  Level Denver Center
Sun 05:47:02 PM 37.6947 -106.3936 307° West 406 467 34,000  Level Salt Lake Center
Sun 05:47:45 PM 37.7469 -106.4808 307° West 401 461 34,000  Level Denver Center
Sun 05:48:47 PM 37.8097 -106.5881 307° West 397 457 34,000  Level Denver Center
Sun 05:49:49 PM 37.8736 -106.6986 306° West 396 456 34,000  Level Denver Center
Sun 05:50:50 PM 37.9472 -106.8239 307° West 397 457 34,000  Level Denver Center
Sun 05:51:52 PM 38.0097 -106.9314 306° West 397 457 34,000  Level Denver Center
Sun 05:52:54 PM 38.0833 -107.0567 307° West 395 455 34,000  Level Denver Center
Sun 05:53:56 PM 38.1397 -107.1567 306° West 394 453 34,000  Level Denver Center
Sun 05:54:58 PM 38.2158 -107.2894 306° West 392 451 34,000  Level Denver Center
Sun 05:57:01 PM 38.3406 -107.5075 306° West 398 458 34,000  Level Denver Center
Sun 05:58:03 PM 38.4128 -107.6389 305° West 402 463 34,000  Level Denver Center
Sun 06:00:06 PM 38.5497 -107.8789 306° West 404 465 34,000  Level Denver Center
Sun 06:01:08 PM 38.6028 -107.9719 306° West 405 466 34,000  Level Denver Center
Sun 06:02:10 PM 38.6886 -108.1219 306° West 409 471 34,000  Level Denver Center
Sun 06:03:12 PM 38.7528 -108.2361 306° West 411 473 34,000  Level Denver Center
Sun 06:04:14 PM 38.8272 -108.3694 306° West 413 475 34,000  Level Denver Center
Sun 06:05:16 PM 38.8897 -108.4850 305° West 411 473 34,000  Level Denver Center
Sun 06:06:18 PM 38.9542 -108.6006 306° West 415 478 34,000  Level Denver Center
Sun 06:07:19 PM 39.0292 -108.7372 305° West 417 480 34,000  Level Denver Center
Sun 06:08:21 PM 39.0853 -108.8597 301° West 417 480 34,000  Level Denver Center
Sun 06:10:25 PM 39.1969 -109.1328 298° West 415 478 34,000  Level Denver Center
Sun 06:12:29 PM 39.3072 -109.4092 297° West 415 478 34,000  Level Denver Center
Sun 06:12:45 PM 39.3247 -109.4508 299° West 414 476 34,000  Level Salt Lake Center
Sun 06:13:47 PM 39.3750 -109.5778 297° West 413 475 34,000 -387 Level Salt Lake Center
Sun 06:14:49 PM 39.4256 -109.7053 297° West 415 478 33,200 -944 Descending Salt Lake Center
Sun 06:15:35 PM 39.4672 -109.8128 297° West 417 480 32,300 -673 Descending Denver Center
Sun 06:16:36 PM 39.5094 -109.9175 298° West 412 474 32,000 -146 Descending Denver Center
Sun 06:17:38 PM 39.5753 -110.0844 297° West 406 467 32,000  Level Denver Center
Sun 06:17:53 PM 39.5906 -110.1256 296° West 402 463 32,000  Level Salt Lake Center
Sun 06:18:55 PM 39.6381 -110.2483 297° West 399 459 32,000  Level Salt Lake Center
Sun 06:19:56 PM 39.6858 -110.3697 297° West 396 456 32,000  Level Salt Lake Center
Sun 06:20:58 PM 39.7403 -110.5128 296° West 394 453 32,000  Level Salt Lake Center
Sun 06:22:00 PM 39.7878 -110.6369 296° West 400 460 32,000 -585 Level Salt Lake Center
Sun 06:23:01 PM 39.8447 -110.7856 297° West 408 470 30,800 -2,000 Descending Salt Lake Center
Sun 06:24:03 PM 39.8936 -110.9133 297° West 411 473 27,900 -3,073 Descending Salt Lake Center
Sun 06:25:04 PM 39.9392 -111.0653 291° West 404 465 24,500 -2,927 Descending Salt Lake Center
Sun 06:26:06 PM 39.9650 -111.1989 284° West 399 459 21,900 -2,293 Descending Salt Lake Center
Sun 06:27:07 PM 40.0194 -111.3156 301° West 395 455 19,800 -2,262 Descending Salt Lake Center
Sun 06:28:08 PM 40.0792 -111.4394 302° West 387 445 17,300 -1,854 Descending Salt Lake Center
Sun 06:29:10 PM 40.1339 -111.5550 302° West 376 433 16,000 -736 Descending Salt Lake Center
Sun 06:29:54 PM 40.1661 -111.6617 292° West 361 415 16,000  Level Salt Lake Center
Sun 06:30:11 PM 40.1772 -111.6725 323° Northwest 360 414 16,000 -532 Level Salt Lake Center
Sun 06:31:13 PM 40.2467 -111.7714 313° West 371 427 15,300 -1,152 Descending Salt Lake Center
Sun 06:31:50 PM 40.3000 -111.8467 313° West 361 415 14,100 -1,574 Descending Salt Lake Center
Sun 06:32:14 PM 40.3208 -111.8600 334° Northwest 363 418 13,700 -1,535 Descending Salt Lake Center
Sun 06:33:16 PM 40.4250 -111.9228 335° Northwest 343 395 11,900 -1,648 Descending Salt Lake Center
Sun 06:33:45 PM 40.4631 -111.9519 330° Northwest 342 394 11,200 -1,377 Descending Salt Lake Center
Sun 06:34:17 PM 40.5106 -111.9675 346° North 332 382 10,500 -1,309 Descending Salt Lake Center
Sun 06:34:40 PM 40.5425 -111.9728 353° North 313 360 10,000 -1,082 Descending Salt Lake Center
Sun 06:35:18 PM 40.5917 -111.9761 357° North 292 336 9,400 -1,273 Descending Salt Lake Center
Sun 06:35:46 PM 40.6267 -111.9839 350° North 265 305 8,600 -1,839 Descending Salt Lake Center
Sun 06:36:20 PM 40.6608 -111.9825 North 253 291 7,500 -2,164 Descending Salt Lake Center
Sun 06:36:47 PM 40.6878 -111.9886 350° North 237 273 6,400 -1,869 Descending Salt Lake Center
Sun 06:37:21 PM 40.7186 -111.9883 360° North 213 245 5,600 -1,377 Descending Salt Lake Center
Sun 06:37:48 PM 40.7364 -111.9947 345° North 170 196 5,000 -968 Descending Salt Lake Center
Sun 06:38:23 PM 40.7606 -111.9928 North 155 178 4,600 -500 Descending Salt Lake Center
Sun 06:39:24 PM 40.7975 -111.9975 354° North 141 162 4,200 -393 Descending Salt Lake Center

Login

Don't have an account? Register now (free) for customized features, flight alerts, and more!